< < Back
Terminal Aerodrome Forecast


Current Version              Previous Versions:   1  2  3  4  5  6  7  8  9  

Terminal Aerodrome Forecast

735
FTUS42 KTAE 031200 AAA
TAFTLH
TAF AMD
KTLH 031207Z 0312/0412 00000KT 5SM BR SCT002
      TEMPO 0312/0314 2SM BR BKN002
     FM031500 14005KT P6SM OVC007
     FM031600 15006KT P6SM OVC012
     FM031900 18008KT P6SM SCT025 BKN050
     FM040000 17004KT P6SM BKN250
     FM040600 00000KT 1/4SM FG OVC001=



Latest METAR

422
SAUS80 KWBC 031500 RRA
MTRTLH
METAR KTLH 031453Z 12008KT 10SM SCT250 23/17 A3021 RMK AO2 SLP230
T02280172 50005 $


USA.gov is the U.S. government's official web portal to all federal, state and local government web resources and services.